sensor_id;sensor_type;location;lat;lon;timestamp;P1;durP1;ratioP1;P2;durP2;ratioP2
12774;SDS011;6451;42.630;23.382;2022-07-24T00:02:09;13.65;;;6.53;;
12774;SDS011;6451;42.630;23.382;2022-07-24T00:04:36;11.80;;;6.78;;
12774;SDS011;6451;42.630;23.382;2022-07-24T00:07:03;13.95;;;6.93;;
12774;SDS011;6451;42.630;23.382;2022-07-24T00:09:29;13.63;;;6.60;;
12774;SDS011;6451;42.630;23.382;2022-07-24T00:11:58;14.73;;;7.10;;
12774;SDS011;6451;42.630;23.382;2022-07-24T00:14:25;11.43;;;6.13;;
12774;SDS011;6451;42.630;23.382;2022-07-24T00:16:52;9.00;;;6.43;;
12774;SDS011;6451;42.630;23.382;2022-07-24T00:19:20;9.68;;;6.38;;
12774;SDS011;6451;42.630;23.382;2022-07-24T00:21:47;9.98;;;6.80;;
12774;SDS011;6451;42.630;23.382;2022-07-24T00:24:14;9.68;;;6.40;;
12774;SDS011;6451;42.630;23.382;2022-07-24T00:26:41;11.88;;;6.15;;
12774;SDS011;6451;42.630;23.382;2022-07-24T00:29:09;13.48;;;6.35;;
12774;SDS011;6451;42.630;23.382;2022-07-24T00:31:36;11.25;;;6.65;;
12774;SDS011;6451;42.630;23.382;2022-07-24T00:34:02;11.05;;;6.78;;
12774;SDS011;6451;42.630;23.382;2022-07-24T00:36:29;13.07;;;6.10;;
12774;SDS011;6451;42.630;23.382;2022-07-24T00:38:56;11.23;;;6.32;;
12774;SDS011;6451;42.630;23.382;2022-07-24T00:41:23;10.15;;;6.75;;
12774;SDS011;6451;42.630;23.382;2022-07-24T00:44:00;8.10;;;6.07;;
12774;SDS011;6451;42.630;23.382;2022-07-24T00:46:30;12.30;;;6.63;;
12774;SDS011;6451;42.630;23.382;2022-07-24T00:48:58;15.00;;;6.32;;
12774;SDS011;6451;42.630;23.382;2022-07-24T00:51:25;11.13;;;6.43;;
12774;SDS011;6451;42.630;23.382;2022-07-24T00:53:51;10.25;;;6.40;;
12774;SDS011;6451;42.630;23.382;2022-07-24T00:56:18;9.38;;;6.20;;
12774;SDS011;6451;42.630;23.382;2022-07-24T00:58:45;10.60;;;6.00;;
12774;SDS011;6451;42.630;23.382;2022-07-24T01:01:13;13.27;;;7.00;;
12774;SDS011;6451;42.630;23.382;2022-07-24T01:03:41;11.45;;;6.80;;
12774;SDS011;6451;42.630;23.382;2022-07-24T01:06:08;11.13;;;7.15;;
12774;SDS011;6451;42.630;23.382;2022-07-24T01:08:35;11.55;;;7.28;;
12774;SDS011;6451;42.630;23.382;2022-07-24T01:11:03;14.85;;;7.60;;
12774;SDS011;6451;42.630;23.382;2022-07-24T01:13:30;10.00;;;7.00;;
12774;SDS011;6451;42.630;23.382;2022-07-24T01:15:59;11.70;;;6.97;;
12774;SDS011;6451;42.630;23.382;2022-07-24T01:18:25;14.07;;;7.32;;
12774;SDS011;6451;42.630;23.382;2022-07-24T01:20:54;10.07;;;7.20;;
12774;SDS011;6451;42.630;23.382;2022-07-24T01:23:22;12.82;;;7.25;;
12774;SDS011;6451;42.630;23.382;2022-07-24T01:25:50;10.68;;;7.45;;
12774;SDS011;6451;42.630;23.382;2022-07-24T01:28:17;13.32;;;7.30;;
12774;SDS011;6451;42.630;23.382;2022-07-24T01:30:44;17.45;;;7.28;;
12774;SDS011;6451;42.630;23.382;2022-07-24T01:33:11;12.60;;;7.38;;
12774;SDS011;6451;42.630;23.382;2022-07-24T01:35:39;10.93;;;7.10;;
12774;SDS011;6451;42.630;23.382;2022-07-24T01:38:07;9.77;;;7.10;;
12774;SDS011;6451;42.630;23.382;2022-07-24T01:40:34;13.57;;;7.00;;
12774;SDS011;6451;42.630;23.382;2022-07-24T01:43:01;9.48;;;6.68;;
12774;SDS011;6451;42.630;23.382;2022-07-24T01:45:28;11.20;;;6.80;;
12774;SDS011;6451;42.630;23.382;2022-07-24T01:47:55;11.45;;;6.93;;
12774;SDS011;6451;42.630;23.382;2022-07-24T01:50:22;14.48;;;7.72;;
12774;SDS011;6451;42.630;23.382;2022-07-24T01:52:51;12.32;;;7.03;;
12774;SDS011;6451;42.630;23.382;2022-07-24T01:55:20;12.45;;;6.93;;
12774;SDS011;6451;42.630;23.382;2022-07-24T01:57:48;14.63;;;7.20;;
12774;SDS011;6451;42.630;23.382;2022-07-24T02:00:15;12.15;;;6.90;;
12774;SDS011;6451;42.630;23.382;2022-07-24T02:02:43;13.27;;;7.40;;
12774;SDS011;6451;42.630;23.382;2022-07-24T02:05:10;13.70;;;7.10;;
12774;SDS011;6451;42.630;23.382;2022-07-24T02:07:38;15.02;;;7.32;;
12774;SDS011;6451;42.630;23.382;2022-07-24T02:10:05;10.80;;;7.32;;
12774;SDS011;6451;42.630;23.382;2022-07-24T02:12:36;9.93;;;6.80;;
12774;SDS011;6451;42.630;23.382;2022-07-24T02:15:03;13.25;;;7.10;;
12774;SDS011;6451;42.630;23.382;2022-07-24T02:17:31;13.05;;;6.95;;
12774;SDS011;6451;42.630;23.382;2022-07-24T02:19:58;11.65;;;6.75;;
12774;SDS011;6451;42.630;23.382;2022-07-24T02:22:25;16.27;;;7.50;;
12774;SDS011;6451;42.630;23.382;2022-07-24T02:24:52;12.30;;;6.88;;
12774;SDS011;6451;42.630;23.382;2022-07-24T02:27:19;12.10;;;7.13;;
12774;SDS011;6451;42.630;23.382;2022-07-24T02:29:47;13.05;;;7.00;;
12774;SDS011;6451;42.630;23.382;2022-07-24T02:32:14;15.57;;;7.68;;
12774;SDS011;6451;42.630;23.382;2022-07-24T02:34:40;9.68;;;6.88;;
12774;SDS011;6451;42.630;23.382;2022-07-24T02:37:09;9.77;;;6.65;;
12774;SDS011;6451;42.630;23.382;2022-07-24T02:39:35;15.75;;;7.22;;
12774;SDS011;6451;42.630;23.382;2022-07-24T02:42:02;10.70;;;7.20;;
12774;SDS011;6451;42.630;23.382;2022-07-24T02:44:29;11.50;;;7.18;;
12774;SDS011;6451;42.630;23.382;2022-07-24T02:46:57;11.25;;;7.47;;
12774;SDS011;6451;42.630;23.382;2022-07-24T02:49:24;11.45;;;7.35;;
12774;SDS011;6451;42.630;23.382;2022-07-24T02:51:51;12.80;;;6.90;;
12774;SDS011;6451;42.630;23.382;2022-07-24T02:54:18;14.45;;;7.45;;
12774;SDS011;6451;42.630;23.382;2022-07-24T02:56:45;11.13;;;7.65;;
12774;SDS011;6451;42.630;23.382;2022-07-24T02:59:12;16.35;;;7.68;;
12774;SDS011;6451;42.630;23.382;2022-07-24T03:01:38;12.90;;;7.40;;
12774;SDS011;6451;42.630;23.382;2022-07-24T03:04:08;11.18;;;7.00;;
12774;SDS011;6451;42.630;23.382;2022-07-24T03:06:35;9.40;;;7.00;;
12774;SDS011;6451;42.630;23.382;2022-07-24T03:09:02;9.25;;;7.30;;
12774;SDS011;6451;42.630;23.382;2022-07-24T03:11:29;11.60;;;7.10;;
12774;SDS011;6451;42.630;23.382;2022-07-24T03:13:56;12.00;;;6.88;;
12774;SDS011;6451;42.630;23.382;2022-07-24T03:16:22;12.10;;;7.15;;
12774;SDS011;6451;42.630;23.382;2022-07-24T03:18:49;12.18;;;7.30;;
12774;SDS011;6451;42.630;23.382;2022-07-24T03:21:17;13.90;;;7.20;;
12774;SDS011;6451;42.630;23.382;2022-07-24T03:23:44;15.32;;;7.25;;
12774;SDS011;6451;42.630;23.382;2022-07-24T03:26:11;11.10;;;7.30;;
12774;SDS011;6451;42.630;23.382;2022-07-24T03:28:38;10.63;;;6.72;;
12774;SDS011;6451;42.630;23.382;2022-07-24T03:31:06;14.13;;;6.60;;
12774;SDS011;6451;42.630;23.382;2022-07-24T03:33:33;12.13;;;7.00;;
12774;SDS011;6451;42.630;23.382;2022-07-24T03:36:00;10.25;;;6.93;;
12774;SDS011;6451;42.630;23.382;2022-07-24T03:38:28;9.50;;;6.85;;
12774;SDS011;6451;42.630;23.382;2022-07-24T03:40:55;15.13;;;7.43;;
12774;SDS011;6451;42.630;23.382;2022-07-24T03:43:22;10.10;;;6.78;;
12774;SDS011;6451;42.630;23.382;2022-07-24T03:45:49;13.93;;;7.15;;
12774;SDS011;6451;42.630;23.382;2022-07-24T03:48:15;8.88;;;6.55;;
12774;SDS011;6451;42.630;23.382;2022-07-24T03:50:43;12.77;;;7.10;;
12774;SDS011;6451;42.630;23.382;2022-07-24T03:53:10;14.07;;;7.70;;
12774;SDS011;6451;42.630;23.382;2022-07-24T03:55:38;9.38;;;6.97;;
12774;SDS011;6451;42.630;23.382;2022-07-24T03:58:05;11.77;;;7.47;;
12774;SDS011;6451;42.630;23.382;2022-07-24T04:00:32;11.18;;;7.22;;
12774;SDS011;6451;42.630;23.382;2022-07-24T04:02:59;11.02;;;7.15;;
12774;SDS011;6451;42.630;23.382;2022-07-24T04:05:26;14.82;;;7.95;;
12774;SDS011;6451;42.630;23.382;2022-07-24T04:07:53;12.35;;;7.32;;
12774;SDS011;6451;42.630;23.382;2022-07-24T04:10:20;13.27;;;7.03;;
12774;SDS011;6451;42.630;23.382;2022-07-24T04:12:50;11.68;;;7.07;;
12774;SDS011;6451;42.630;23.382;2022-07-24T04:15:17;11.18;;;6.82;;
12774;SDS011;6451;42.630;23.382;2022-07-24T04:17:43;10.82;;;6.72;;
12774;SDS011;6451;42.630;23.382;2022-07-24T04:20:10;11.00;;;6.50;;
12774;SDS011;6451;42.630;23.382;2022-07-24T04:22:38;12.73;;;7.07;;
12774;SDS011;6451;42.630;23.382;2022-07-24T04:25:05;11.27;;;7.43;;
12774;SDS011;6451;42.630;23.382;2022-07-24T04:27:33;14.57;;;7.10;;
12774;SDS011;6451;42.630;23.382;2022-07-24T04:30:01;10.00;;;7.55;;
12774;SDS011;6451;42.630;23.382;2022-07-24T04:32:29;11.00;;;6.93;;
12774;SDS011;6451;42.630;23.382;2022-07-24T04:34:56;10.63;;;7.50;;
12774;SDS011;6451;42.630;23.382;2022-07-24T04:37:23;11.98;;;7.70;;
12774;SDS011;6451;42.630;23.382;2022-07-24T04:39:50;13.23;;;7.43;;
12774;SDS011;6451;42.630;23.382;2022-07-24T04:42:18;14.07;;;8.23;;
12774;SDS011;6451;42.630;23.382;2022-07-24T04:44:45;12.20;;;7.65;;
12774;SDS011;6451;42.630;23.382;2022-07-24T04:47:13;12.52;;;6.93;;
12774;SDS011;6451;42.630;23.382;2022-07-24T04:49:40;14.75;;;6.65;;
12774;SDS011;6451;42.630;23.382;2022-07-24T04:52:07;11.73;;;7.18;;
12774;SDS011;6451;42.630;23.382;2022-07-24T04:54:34;11.70;;;7.38;;
12774;SDS011;6451;42.630;23.382;2022-07-24T04:57:01;14.23;;;7.60;;
12774;SDS011;6451;42.630;23.382;2022-07-24T04:59:27;13.05;;;7.63;;
12774;SDS011;6451;42.630;23.382;2022-07-24T05:01:54;11.27;;;6.93;;
12774;SDS011;6451;42.630;23.382;2022-07-24T05:04:22;13.10;;;8.00;;
12774;SDS011;6451;42.630;23.382;2022-07-24T05:06:51;10.48;;;7.22;;
12774;SDS011;6451;42.630;23.382;2022-07-24T05:09:18;12.95;;;7.90;;
12774;SDS011;6451;42.630;23.382;2022-07-24T05:11:45;10.57;;;7.85;;
12774;SDS011;6451;42.630;23.382;2022-07-24T05:14:13;10.40;;;7.32;;
12774;SDS011;6451;42.630;23.382;2022-07-24T05:16:40;14.27;;;7.53;;
12774;SDS011;6451;42.630;23.382;2022-07-24T05:19:07;12.95;;;7.82;;
12774;SDS011;6451;42.630;23.382;2022-07-24T05:21:35;11.50;;;7.82;;
12774;SDS011;6451;42.630;23.382;2022-07-24T05:24:02;11.85;;;7.53;;
12774;SDS011;6451;42.630;23.382;2022-07-24T05:26:29;10.10;;;7.13;;
12774;SDS011;6451;42.630;23.382;2022-07-24T05:28:56;11.23;;;8.40;;
12774;SDS011;6451;42.630;23.382;2022-07-24T05:31:23;10.25;;;7.72;;
12774;SDS011;6451;42.630;23.382;2022-07-24T05:33:50;12.27;;;7.40;;
12774;SDS011;6451;42.630;23.382;2022-07-24T05:36:17;10.23;;;7.53;;
12774;SDS011;6451;42.630;23.382;2022-07-24T05:38:45;11.77;;;8.27;;
12774;SDS011;6451;42.630;23.382;2022-07-24T05:41:13;13.32;;;8.52;;
12774;SDS011;6451;42.630;23.382;2022-07-24T05:43:39;11.02;;;7.97;;
12774;SDS011;6451;42.630;23.382;2022-07-24T05:46:06;9.68;;;8.02;;
12774;SDS011;6451;42.630;23.382;2022-07-24T05:48:33;14.38;;;7.88;;
12774;SDS011;6451;42.630;23.382;2022-07-24T05:51:00;14.18;;;7.80;;
12774;SDS011;6451;42.630;23.382;2022-07-24T05:53:27;11.75;;;7.97;;
12774;SDS011;6451;42.630;23.382;2022-07-24T05:55:55;14.27;;;7.88;;
12774;SDS011;6451;42.630;23.382;2022-07-24T05:58:22;14.98;;;8.40;;
12774;SDS011;6451;42.630;23.382;2022-07-24T06:00:49;11.68;;;8.70;;
12774;SDS011;6451;42.630;23.382;2022-07-24T06:03:16;14.02;;;8.57;;
12774;SDS011;6451;42.630;23.382;2022-07-24T06:05:44;16.42;;;8.20;;
12774;SDS011;6451;42.630;23.382;2022-07-24T06:08:10;15.27;;;8.85;;
12774;SDS011;6451;42.630;23.382;2022-07-24T06:10:37;12.32;;;8.35;;
12774;SDS011;6451;42.630;23.382;2022-07-24T06:13:06;12.35;;;8.13;;
12774;SDS011;6451;42.630;23.382;2022-07-24T06:15:32;12.30;;;7.75;;
12774;SDS011;6451;42.630;23.382;2022-07-24T06:17:59;14.13;;;8.57;;
12774;SDS011;6451;42.630;23.382;2022-07-24T06:20:26;10.80;;;7.80;;
12774;SDS011;6451;42.630;23.382;2022-07-24T06:22:53;14.35;;;8.40;;
12774;SDS011;6451;42.630;23.382;2022-07-24T06:25:20;17.27;;;8.18;;
12774;SDS011;6451;42.630;23.382;2022-07-24T06:27:48;12.02;;;8.18;;
12774;SDS011;6451;42.630;23.382;2022-07-24T06:30:19;11.63;;;7.97;;
12774;SDS011;6451;42.630;23.382;2022-07-24T06:32:48;15.10;;;8.50;;
12774;SDS011;6451;42.630;23.382;2022-07-24T06:35:16;17.92;;;8.63;;
12774;SDS011;6451;42.630;23.382;2022-07-24T06:37:43;10.80;;;8.25;;
12774;SDS011;6451;42.630;23.382;2022-07-24T06:40:10;16.38;;;8.35;;
12774;SDS011;6451;42.630;23.382;2022-07-24T06:42:37;14.98;;;8.82;;
12774;SDS011;6451;42.630;23.382;2022-07-24T06:45:05;13.57;;;8.60;;
12774;SDS011;6451;42.630;23.382;2022-07-24T06:47:34;15.90;;;8.25;;
12774;SDS011;6451;42.630;23.382;2022-07-24T06:50:00;13.18;;;8.70;;
12774;SDS011;6451;42.630;23.382;2022-07-24T06:52:28;12.95;;;8.45;;
12774;SDS011;6451;42.630;23.382;2022-07-24T06:54:55;14.27;;;8.93;;
12774;SDS011;6451;42.630;23.382;2022-07-24T06:57:22;9.70;;;8.52;;
12774;SDS011;6451;42.630;23.382;2022-07-24T06:59:50;16.60;;;9.00;;
12774;SDS011;6451;42.630;23.382;2022-07-24T07:02:17;15.48;;;8.85;;
12774;SDS011;6451;42.630;23.382;2022-07-24T07:04:46;14.50;;;8.90;;
12774;SDS011;6451;42.630;23.382;2022-07-24T07:07:13;13.07;;;8.50;;
12774;SDS011;6451;42.630;23.382;2022-07-24T07:09:40;13.68;;;8.65;;
12774;SDS011;6451;42.630;23.382;2022-07-24T07:12:08;17.13;;;8.95;;
12774;SDS011;6451;42.630;23.382;2022-07-24T07:14:35;16.17;;;9.00;;
12774;SDS011;6451;42.630;23.382;2022-07-24T07:17:02;16.08;;;9.18;;
12774;SDS011;6451;42.630;23.382;2022-07-24T07:19:28;16.92;;;9.20;;
12774;SDS011;6451;42.630;23.382;2022-07-24T07:21:57;16.17;;;8.93;;
12774;SDS011;6451;42.630;23.382;2022-07-24T07:24:24;15.35;;;9.20;;
12774;SDS011;6451;42.630;23.382;2022-07-24T07:26:51;20.70;;;9.10;;
12774;SDS011;6451;42.630;23.382;2022-07-24T07:29:18;14.30;;;8.75;;
12774;SDS011;6451;42.630;23.382;2022-07-24T07:31:45;18.08;;;8.88;;
12774;SDS011;6451;42.630;23.382;2022-07-24T07:34:11;15.10;;;8.75;;
12774;SDS011;6451;42.630;23.382;2022-07-24T07:36:38;12.88;;;8.73;;
12774;SDS011;6451;42.630;23.382;2022-07-24T07:39:06;12.95;;;8.50;;
12774;SDS011;6451;42.630;23.382;2022-07-24T07:41:33;17.65;;;9.18;;
12774;SDS011;6451;42.630;23.382;2022-07-24T07:44:01;16.20;;;9.05;;
12774;SDS011;6451;42.630;23.382;2022-07-24T07:46:28;16.40;;;8.80;;
12774;SDS011;6451;42.630;23.382;2022-07-24T07:48:56;15.05;;;8.80;;
12774;SDS011;6451;42.630;23.382;2022-07-24T07:51:24;17.60;;;8.75;;
12774;SDS011;6451;42.630;23.382;2022-07-24T07:53:51;16.13;;;9.15;;
12774;SDS011;6451;42.630;23.382;2022-07-24T07:56:19;12.85;;;9.10;;
12774;SDS011;6451;42.630;23.382;2022-07-24T07:58:46;15.20;;;9.43;;
12774;SDS011;6451;42.630;23.382;2022-07-24T08:01:13;15.75;;;9.30;;
12774;SDS011;6451;42.630;23.382;2022-07-24T08:03:40;12.32;;;8.48;;
12774;SDS011;6451;42.630;23.382;2022-07-24T08:06:07;15.25;;;8.90;;
12774;SDS011;6451;42.630;23.382;2022-07-24T08:08:34;12.93;;;8.75;;
12774;SDS011;6451;42.630;23.382;2022-07-24T08:11:01;15.40;;;8.98;;
12774;SDS011;6451;42.630;23.382;2022-07-24T08:13:29;20.38;;;9.15;;
12774;SDS011;6451;42.630;23.382;2022-07-24T08:15:56;14.10;;;9.10;;
12774;SDS011;6451;42.630;23.382;2022-07-24T08:18:23;12.50;;;8.98;;
12774;SDS011;6451;42.630;23.382;2022-07-24T08:20:51;14.52;;;8.55;;
12774;SDS011;6451;42.630;23.382;2022-07-24T08:23:18;10.30;;;9.10;;
12774;SDS011;6451;42.630;23.382;2022-07-24T08:25:45;15.00;;;9.70;;
12774;SDS011;6451;42.630;23.382;2022-07-24T08:28:12;15.35;;;10.10;;
12774;SDS011;6451;42.630;23.382;2022-07-24T08:30:40;16.40;;;9.63;;
12774;SDS011;6451;42.630;23.382;2022-07-24T08:33:07;14.50;;;9.18;;
12774;SDS011;6451;42.630;23.382;2022-07-24T08:35:34;16.23;;;9.40;;
12774;SDS011;6451;42.630;23.382;2022-07-24T08:38:01;14.10;;;9.30;;
12774;SDS011;6451;42.630;23.382;2022-07-24T08:40:31;15.35;;;8.73;;
12774;SDS011;6451;42.630;23.382;2022-07-24T08:42:59;14.38;;;9.02;;
12774;SDS011;6451;42.630;23.382;2022-07-24T08:45:26;13.75;;;8.57;;
12774;SDS011;6451;42.630;23.382;2022-07-24T08:47:55;14.98;;;9.27;;
12774;SDS011;6451;42.630;23.382;2022-07-24T08:50:22;16.00;;;9.38;;
12774;SDS011;6451;42.630;23.382;2022-07-24T08:52:49;17.65;;;9.18;;
12774;SDS011;6451;42.630;23.382;2022-07-24T08:55:16;18.05;;;8.80;;
12774;SDS011;6451;42.630;23.382;2022-07-24T08:57:44;21.40;;;9.15;;
12774;SDS011;6451;42.630;23.382;2022-07-24T09:00:11;14.75;;;9.48;;
12774;SDS011;6451;42.630;23.382;2022-07-24T09:02:39;14.85;;;9.35;;
12774;SDS011;6451;42.630;23.382;2022-07-24T09:05:08;17.13;;;9.23;;
12774;SDS011;6451;42.630;23.382;2022-07-24T09:07:35;16.83;;;9.07;;
12774;SDS011;6451;42.630;23.382;2022-07-24T09:10:03;13.95;;;9.00;;
12774;SDS011;6451;42.630;23.382;2022-07-24T09:12:32;15.25;;;9.15;;
12774;SDS011;6451;42.630;23.382;2022-07-24T09:15:02;15.45;;;9.45;;
12774;SDS011;6451;42.630;23.382;2022-07-24T09:17:43;18.20;;;9.98;;
12774;SDS011;6451;42.630;23.382;2022-07-24T09:20:15;17.55;;;10.30;;
12774;SDS011;6451;42.630;23.382;2022-07-24T09:22:42;13.02;;;9.10;;
12774;SDS011;6451;42.630;23.382;2022-07-24T09:25:12;18.08;;;10.40;;
12774;SDS011;6451;42.630;23.382;2022-07-24T09:27:41;20.33;;;9.68;;
12774;SDS011;6451;42.630;23.382;2022-07-24T09:30:20;12.18;;;9.13;;
12774;SDS011;6451;42.630;23.382;2022-07-24T09:32:53;14.60;;;9.82;;
12774;SDS011;6451;42.630;23.382;2022-07-24T09:35:24;13.45;;;9.38;;
12774;SDS011;6451;42.630;23.382;2022-07-24T09:37:57;21.00;;;10.10;;
12774;SDS011;6451;42.630;23.382;2022-07-24T09:40:27;12.68;;;9.43;;
12774;SDS011;6451;42.630;23.382;2022-07-24T09:42:58;19.08;;;9.80;;
12774;SDS011;6451;42.630;23.382;2022-07-24T09:45:50;15.93;;;9.77;;
12774;SDS011;6451;42.630;23.382;2022-07-24T09:48:22;15.13;;;9.40;;
12774;SDS011;6451;42.630;23.382;2022-07-24T09:50:52;13.45;;;8.82;;
12774;SDS011;6451;42.630;23.382;2022-07-24T09:53:22;17.58;;;9.32;;
12774;SDS011;6451;42.630;23.382;2022-07-24T09:56:01;13.07;;;9.52;;
12774;SDS011;6451;42.630;23.382;2022-07-24T09:58:31;17.00;;;8.90;;
12774;SDS011;6451;42.630;23.382;2022-07-24T10:01:00;14.35;;;8.98;;
12774;SDS011;6451;42.630;23.382;2022-07-24T10:03:29;16.77;;;9.13;;
12774;SDS011;6451;42.630;23.382;2022-07-24T10:05:58;18.65;;;8.95;;
12774;SDS011;6451;42.630;23.382;2022-07-24T10:08:27;14.50;;;8.82;;
12774;SDS011;6451;42.630;23.382;2022-07-24T10:10:55;15.77;;;8.60;;
12774;SDS011;6451;42.630;23.382;2022-07-24T10:13:22;17.52;;;9.00;;
12774;SDS011;6451;42.630;23.382;2022-07-24T10:15:54;12.77;;;8.52;;
12774;SDS011;6451;42.630;23.382;2022-07-24T10:18:39;13.23;;;7.95;;
12774;SDS011;6451;42.630;23.382;2022-07-24T10:21:16;15.57;;;8.32;;
12774;SDS011;6451;42.630;23.382;2022-07-24T10:26:46;11.85;;;7.38;;
12774;SDS011;6451;42.630;23.382;2022-07-24T10:29:15;13.95;;;7.60;;
12774;SDS011;6451;42.630;23.382;2022-07-24T10:31:44;13.30;;;7.78;;
12774;SDS011;6451;42.630;23.382;2022-07-24T10:34:15;11.77;;;7.07;;
12774;SDS011;6451;42.630;23.382;2022-07-24T10:36:57;15.85;;;7.50;;
12774;SDS011;6451;42.630;23.382;2022-07-24T10:39:35;15.50;;;7.75;;
12774;SDS011;6451;42.630;23.382;2022-07-24T10:42:06;12.07;;;7.18;;
12774;SDS011;6451;42.630;23.382;2022-07-24T10:44:34;15.93;;;7.55;;
12774;SDS011;6451;42.630;23.382;2022-07-24T10:47:03;13.48;;;7.70;;
12774;SDS011;6451;42.630;23.382;2022-07-24T10:49:34;12.68;;;7.35;;
12774;SDS011;6451;42.630;23.382;2022-07-24T10:52:22;12.30;;;7.53;;
12774;SDS011;6451;42.630;23.382;2022-07-24T10:57:54;12.70;;;7.38;;
12774;SDS011;6451;42.630;23.382;2022-07-24T11:00:23;11.23;;;7.20;;
12774;SDS011;6451;42.630;23.382;2022-07-24T11:02:59;10.02;;;7.00;;
12774;SDS011;6451;42.630;23.382;2022-07-24T11:05:29;9.38;;;7.55;;
12774;SDS011;6451;42.630;23.382;2022-07-24T11:11:09;12.25;;;7.10;;
12774;SDS011;6451;42.630;23.382;2022-07-24T11:13:41;10.25;;;7.25;;
12774;SDS011;6451;42.630;23.382;2022-07-24T11:16:16;10.30;;;7.40;;
12774;SDS011;6451;42.630;23.382;2022-07-24T11:22:01;9.00;;;7.43;;
12774;SDS011;6451;42.630;23.382;2022-07-24T11:24:33;12.02;;;7.32;;
12774;SDS011;6451;42.630;23.382;2022-07-24T11:27:05;10.85;;;7.03;;
12774;SDS011;6451;42.630;23.382;2022-07-24T11:29:34;10.18;;;7.20;;
12774;SDS011;6451;42.630;23.382;2022-07-24T11:32:04;10.85;;;7.18;;
12774;SDS011;6451;42.630;23.382;2022-07-24T11:34:33;10.00;;;7.43;;
12774;SDS011;6451;42.630;23.382;2022-07-24T11:37:01;10.30;;;7.35;;
12774;SDS011;6451;42.630;23.382;2022-07-24T11:39:30;10.52;;;7.18;;
12774;SDS011;6451;42.630;23.382;2022-07-24T11:42:01;9.38;;;7.47;;
12774;SDS011;6451;42.630;23.382;2022-07-24T11:44:32;10.23;;;7.10;;
12774;SDS011;6451;42.630;23.382;2022-07-24T11:47:05;11.20;;;7.38;;
12774;SDS011;6451;42.630;23.382;2022-07-24T11:49:38;9.35;;;6.88;;
12774;SDS011;6451;42.630;23.382;2022-07-24T11:52:06;12.55;;;7.50;;
12774;SDS011;6451;42.630;23.382;2022-07-24T11:54:38;9.90;;;6.90;;
12774;SDS011;6451;42.630;23.382;2022-07-24T11:57:14;11.07;;;7.03;;
12774;SDS011;6451;42.630;23.382;2022-07-24T11:59:43;11.90;;;7.60;;
12774;SDS011;6451;42.630;23.382;2022-07-24T12:02:11;8.23;;;7.43;;
12774;SDS011;6451;42.630;23.382;2022-07-24T12:04:38;9.07;;;7.43;;
12774;SDS011;6451;42.630;23.382;2022-07-24T12:07:06;10.00;;;7.15;;
12774;SDS011;6451;42.630;23.382;2022-07-24T12:09:43;8.55;;;7.50;;
12774;SDS011;6451;42.630;23.382;2022-07-24T12:12:21;11.77;;;7.05;;
12774;SDS011;6451;42.630;23.382;2022-07-24T12:14:50;12.95;;;7.43;;
12774;SDS011;6451;42.630;23.382;2022-07-24T12:17:18;9.40;;;7.28;;
12774;SDS011;6451;42.630;23.382;2022-07-24T12:19:52;11.18;;;6.90;;
12774;SDS011;6451;42.630;23.382;2022-07-24T12:22:21;12.75;;;7.60;;
12774;SDS011;6451;42.630;23.382;2022-07-24T12:24:51;11.38;;;7.18;;
12774;SDS011;6451;42.630;23.382;2022-07-24T12:30:01;8.25;;;6.82;;
12774;SDS011;6451;42.630;23.382;2022-07-24T12:32:29;14.02;;;7.38;;
12774;SDS011;6451;42.630;23.382;2022-07-24T12:34:56;13.52;;;7.43;;
12774;SDS011;6451;42.630;23.382;2022-07-24T12:37:23;11.25;;;7.18;;
12774;SDS011;6451;42.630;23.382;2022-07-24T12:39:52;11.65;;;7.10;;
12774;SDS011;6451;42.630;23.382;2022-07-24T12:42:28;10.15;;;7.22;;
12774;SDS011;6451;42.630;23.382;2022-07-24T12:45:05;12.43;;;7.03;;
12774;SDS011;6451;42.630;23.382;2022-07-24T12:47:33;11.25;;;7.13;;
12774;SDS011;6451;42.630;23.382;2022-07-24T12:50:10;10.98;;;7.10;;
12774;SDS011;6451;42.630;23.382;2022-07-24T12:52:39;12.63;;;7.32;;
12774;SDS011;6451;42.630;23.382;2022-07-24T12:55:19;11.05;;;7.80;;
12774;SDS011;6451;42.630;23.382;2022-07-24T12:57:46;12.48;;;7.25;;
12774;SDS011;6451;42.630;23.382;2022-07-24T13:00:14;12.95;;;7.43;;
12774;SDS011;6451;42.630;23.382;2022-07-24T13:02:41;10.65;;;7.22;;
12774;SDS011;6451;42.630;23.382;2022-07-24T13:05:08;11.25;;;7.90;;
12774;SDS011;6451;42.630;23.382;2022-07-24T13:07:35;8.88;;;7.35;;
12774;SDS011;6451;42.630;23.382;2022-07-24T13:10:02;13.40;;;7.88;;
12774;SDS011;6451;42.630;23.382;2022-07-24T13:12:31;11.27;;;7.25;;
12774;SDS011;6451;42.630;23.382;2022-07-24T13:14:58;9.10;;;6.95;;
12774;SDS011;6451;42.630;23.382;2022-07-24T13:17:25;9.65;;;7.28;;
12774;SDS011;6451;42.630;23.382;2022-07-24T13:19:52;9.65;;;7.40;;
12774;SDS011;6451;42.630;23.382;2022-07-24T13:22:19;9.30;;;7.35;;
12774;SDS011;6451;42.630;23.382;2022-07-24T13:24:46;7.90;;;7.10;;
12774;SDS011;6451;42.630;23.382;2022-07-24T13:27:13;11.05;;;7.93;;
12774;SDS011;6451;42.630;23.382;2022-07-24T13:29:43;7.95;;;7.13;;
12774;SDS011;6451;42.630;23.382;2022-07-24T13:32:10;10.63;;;7.40;;
12774;SDS011;6451;42.630;23.382;2022-07-24T13:34:37;9.98;;;7.38;;
12774;SDS011;6451;42.630;23.382;2022-07-24T13:37:04;9.60;;;7.93;;
12774;SDS011;6451;42.630;23.382;2022-07-24T13:39:31;9.43;;;7.57;;
12774;SDS011;6451;42.630;23.382;2022-07-24T13:41:59;8.55;;;7.70;;
12774;SDS011;6451;42.630;23.382;2022-07-24T13:44:26;9.10;;;7.68;;
12774;SDS011;6451;42.630;23.382;2022-07-24T13:46:54;10.32;;;7.75;;
12774;SDS011;6451;42.630;23.382;2022-07-24T13:49:21;11.98;;;8.38;;
12774;SDS011;6451;42.630;23.382;2022-07-24T13:51:47;12.38;;;7.53;;
12774;SDS011;6451;42.630;23.382;2022-07-24T13:54:14;10.60;;;7.72;;
12774;SDS011;6451;42.630;23.382;2022-07-24T13:56:41;10.07;;;7.78;;
12774;SDS011;6451;42.630;23.382;2022-07-24T13:59:09;8.68;;;7.50;;
12774;SDS011;6451;42.630;23.382;2022-07-24T14:01:36;9.82;;;7.57;;
12774;SDS011;6451;42.630;23.382;2022-07-24T14:04:05;10.98;;;8.10;;
12774;SDS011;6451;42.630;23.382;2022-07-24T14:06:34;10.40;;;7.90;;
12774;SDS011;6451;42.630;23.382;2022-07-24T14:09:01;9.90;;;8.00;;
12774;SDS011;6451;42.630;23.382;2022-07-24T14:11:28;9.10;;;8.00;;
12774;SDS011;6451;42.630;23.382;2022-07-24T14:13:56;11.15;;;8.27;;
12774;SDS011;6451;42.630;23.382;2022-07-24T14:16:23;10.02;;;8.00;;
12774;SDS011;6451;42.630;23.382;2022-07-24T14:18:50;10.75;;;8.93;;
12774;SDS011;6451;42.630;23.382;2022-07-24T14:21:18;11.32;;;8.60;;
12774;SDS011;6451;42.630;23.382;2022-07-24T14:23:45;13.38;;;8.13;;
12774;SDS011;6451;42.630;23.382;2022-07-24T14:26:12;11.85;;;7.70;;
12774;SDS011;6451;42.630;23.382;2022-07-24T14:28:38;13.38;;;6.85;;
12774;SDS011;6451;42.630;23.382;2022-07-24T14:31:05;15.30;;;6.97;;
12774;SDS011;6451;42.630;23.382;2022-07-24T14:33:32;10.82;;;7.25;;
12774;SDS011;6451;42.630;23.382;2022-07-24T14:36:00;14.82;;;7.45;;
12774;SDS011;6451;42.630;23.382;2022-07-24T14:38:28;12.95;;;7.50;;
12774;SDS011;6451;42.630;23.382;2022-07-24T14:40:55;14.00;;;7.72;;
12774;SDS011;6451;42.630;23.382;2022-07-24T14:43:22;10.82;;;7.20;;
12774;SDS011;6451;42.630;23.382;2022-07-24T14:45:49;11.75;;;7.78;;
12774;SDS011;6451;42.630;23.382;2022-07-24T14:48:15;10.57;;;7.38;;
12774;SDS011;6451;42.630;23.382;2022-07-24T14:50:42;9.45;;;7.70;;
12774;SDS011;6451;42.630;23.382;2022-07-24T14:53:09;14.70;;;7.88;;
12774;SDS011;6451;42.630;23.382;2022-07-24T14:55:37;13.38;;;7.55;;
12774;SDS011;6451;42.630;23.382;2022-07-24T14:58:04;20.17;;;8.48;;